createdAt,value
2022-11-09T00:05:28.499Z,14.15
2022-11-09T00:15:29.779Z,15.25
2022-11-09T00:25:31.158Z,14.95
2022-11-09T00:35:32.555Z,15.52
2022-11-09T00:45:33.802Z,14.15
2022-11-09T00:55:35.327Z,17.88
2022-11-09T01:05:39.587Z,19.92
2022-11-09T01:15:41.609Z,22.73
2022-11-09T01:25:44.135Z,15.95
2022-11-09T01:35:45.347Z,15.02
2022-11-09T01:45:46.764Z,15.60
2022-11-09T01:55:48.133Z,17.30
2022-11-09T02:05:49.473Z,14.55
2022-11-09T02:15:50.989Z,17.77
2022-11-09T02:25:52.389Z,16.60
2022-11-09T02:35:53.769Z,16.88
2022-11-09T02:45:55.140Z,15.02
2022-11-09T02:55:56.502Z,18.15
2022-11-09T03:05:57.849Z,16.15
2022-11-09T03:15:59.209Z,17.42
2022-11-09T03:26:00.686Z,16.33
2022-11-09T03:36:02.014Z,21.30
2022-11-09T03:46:03.347Z,13.93
2022-11-09T03:56:04.678Z,15.27
2022-11-09T04:06:06.040Z,12.25
2022-11-09T04:16:07.441Z,13.65
2022-11-09T04:26:08.773Z,13.32
2022-11-09T04:36:10.159Z,14.90
2022-11-09T04:46:11.549Z,15.05
2022-11-09T04:56:12.901Z,16.58
2022-11-09T05:06:32.700Z,13.32
2022-11-09T05:16:34.164Z,14.88
2022-11-09T05:26:35.538Z,13.40
2022-11-09T05:36:36.888Z,14.05
2022-11-09T05:46:38.322Z,12.57
2022-11-09T05:56:39.692Z,9.68
2022-11-09T06:06:41.150Z,11.05
2022-11-09T06:16:42.519Z,8.65
2022-11-09T06:26:43.876Z,9.48
2022-11-09T06:36:45.196Z,7.45
2022-11-09T06:46:46.544Z,6.68
2022-11-09T06:56:48.013Z,4.88
2022-11-09T07:06:49.589Z,5.18
2022-11-09T07:16:51.006Z,6.85
2022-11-09T07:26:52.440Z,4.57
2022-11-09T07:36:54.672Z,3.88
2022-11-09T07:46:56.030Z,4.28
2022-11-09T07:56:57.373Z,4.93
2022-11-09T08:06:58.770Z,8.48
2022-11-09T08:17:00.228Z,7.53
2022-11-09T08:27:01.560Z,6.80
2022-11-09T08:37:02.902Z,7.90
2022-11-09T08:47:04.265Z,5.68
2022-11-09T08:57:05.757Z,5.95
2022-11-09T09:07:07.193Z,5.95
2022-11-09T09:17:08.669Z,5.90
2022-11-09T09:27:10.057Z,5.65
2022-11-09T09:37:11.470Z,6.05
2022-11-09T09:47:12.687Z,7.70
2022-11-09T09:57:14.077Z,5.18
2022-11-09T10:07:15.505Z,5.85
2022-11-09T10:17:16.910Z,4.20
2022-11-09T10:27:18.255Z,9.25
2022-11-09T10:37:19.508Z,7.50
2022-11-09T10:47:22.698Z,5.35
2022-11-09T10:57:24.143Z,4.30
2022-11-09T11:07:25.690Z,6.30
2022-11-09T11:17:27.036Z,4.95
2022-11-09T11:27:28.484Z,4.85
2022-11-09T11:37:29.832Z,4.07
2022-11-09T11:47:31.221Z,7.15
2022-11-09T11:57:32.614Z,6.10
2022-11-09T12:07:34.055Z,4.88
2022-11-09T12:17:38.057Z,5.20
2022-11-09T12:27:39.381Z,4.67
2022-11-09T12:37:40.667Z,6.88
2022-11-09T12:47:41.957Z,4.97
2022-11-09T12:57:43.379Z,4.43
2022-11-09T13:07:44.687Z,5.95
2022-11-09T13:17:46.021Z,5.47
2022-11-09T13:27:47.369Z,7.93
2022-11-09T13:37:49.454Z,7.68
2022-11-09T13:47:50.864Z,6.40
2022-11-09T13:57:52.095Z,7.30
2022-11-09T14:07:53.599Z,5.72
2022-11-09T14:17:54.991Z,8.25
2022-11-09T14:27:59.278Z,6.57
2022-11-09T14:38:00.595Z,7.37
2022-11-09T14:48:02.120Z,5.45
2022-11-09T14:58:03.512Z,8.25
2022-11-09T15:08:04.754Z,7.15
2022-11-09T15:18:06.159Z,8.65
2022-11-09T15:28:07.520Z,6.75
2022-11-09T15:38:08.890Z,7.50
2022-11-09T15:48:10.253Z,10.90
2022-11-09T15:58:11.748Z,16.08
2022-11-09T16:08:13.253Z,13.32
2022-11-09T16:18:17.411Z,10.85
2022-11-09T16:28:20.812Z,14.85
2022-11-09T16:38:22.756Z,11.52
2022-11-09T16:48:24.616Z,9.65
2022-11-09T16:58:26.026Z,9.20
2022-11-09T17:08:27.357Z,10.57
2022-11-09T17:18:28.683Z,11.23
2022-11-09T17:28:30.059Z,9.13
2022-11-09T17:38:31.465Z,10.48
2022-11-09T17:48:32.905Z,12.27
2022-11-09T17:58:34.295Z,14.23
2022-11-09T18:08:35.558Z,5.18
2022-11-09T18:18:37.012Z,7.63
2022-11-09T18:28:39.452Z,8.90
2022-11-09T18:38:40.786Z,11.60
2022-11-09T18:48:42.280Z,15.52
2022-11-09T18:58:43.693Z,14.70
2022-11-09T19:09:03.915Z,18.05
2022-11-09T19:19:05.334Z,19.98
2022-11-09T19:29:07.718Z,17.13
2022-11-09T19:39:09.138Z,15.57
2022-11-09T19:49:10.440Z,14.25
2022-11-09T19:59:11.805Z,14.85
2022-11-09T20:09:13.166Z,15.48
2022-11-09T20:19:14.604Z,14.15
2022-11-09T20:29:15.952Z,12.70
2022-11-09T20:39:17.507Z,13.30
2022-11-09T20:49:19.096Z,8.45
2022-11-09T20:59:20.485Z,12.25
2022-11-09T21:09:21.737Z,11.70
2022-11-09T21:19:22.990Z,10.00
2022-11-09T21:29:43.404Z,13.57
2022-11-09T21:39:44.645Z,13.50
2022-11-09T21:49:46.036Z,11.02
2022-11-09T21:59:47.388Z,12.25
2022-11-09T22:10:09.513Z,18.27
2022-11-09T22:20:30.330Z,31.15
2022-11-09T22:30:31.683Z,24.23
2022-11-09T22:40:33.026Z,23.95
2022-11-09T22:50:34.859Z,25.50
2022-11-09T23:00:36.233Z,19.15
2022-11-09T23:10:37.566Z,19.67
2022-11-09T23:20:38.896Z,17.20
2022-11-09T23:30:40.214Z,16.65
2022-11-09T23:40:41.575Z,13.77
2022-11-09T23:50:43.151Z,14.80
